createdAt,value
2023-05-23T00:02:16.780Z,81177.78
2023-05-23T00:04:45.591Z,80408.22
2023-05-23T00:07:14.090Z,80664.72
2023-05-23T00:09:45.785Z,80921.25
2023-05-23T00:12:14.136Z,81177.78
2023-05-23T00:14:44.185Z,81690.91
2023-05-23T00:17:12.717Z,81690.91
2023-05-23T00:19:41.548Z,82204.09
2023-05-23T00:22:10.927Z,82460.72
2023-05-23T00:24:40.467Z,82717.38
2023-05-23T00:27:09.092Z,82204.09
2023-05-23T00:29:37.650Z,82717.38
2023-05-23T00:32:07.778Z,82717.38
2023-05-23T00:34:36.754Z,81434.31
2023-05-23T00:37:06.600Z,81947.50
2023-05-23T00:39:37.589Z,81947.50
2023-05-23T00:42:06.812Z,81690.91
2023-05-23T00:44:35.785Z,81947.50
2023-05-23T00:47:06.102Z,81947.50
2023-05-23T00:49:36.423Z,81690.91
2023-05-23T00:52:05.646Z,81434.31
2023-05-23T00:54:35.909Z,80408.22
2023-05-23T00:57:04.721Z,80151.75
2023-05-23T00:59:35.117Z,78869.66
2023-05-23T01:02:04.135Z,78100.63
2023-05-23T01:04:34.564Z,77588.03
2023-05-23T01:07:05.167Z,77075.53
2023-05-23T01:09:35.575Z,75794.56
2023-05-23T01:12:27.039Z,72722.25
2023-05-23T01:15:06.618Z,72722.25
2023-05-23T01:17:46.112Z,71187.13
2023-05-23T01:20:21.135Z,70867.38
2023-05-23T01:23:15.700Z,66805.41
2023-05-23T01:26:09.413Z,65528.28
2023-05-23T01:28:46.969Z,65073.44
2023-05-23T01:31:17.995Z,64124.00
2023-05-23T01:33:47.751Z,64130.00
2023-05-23T01:36:17.137Z,64275.59
2023-05-23T01:38:46.308Z,64004.34
2023-05-23T01:41:14.963Z,63647.41
2023-05-23T01:43:44.905Z,63160.91
2023-05-23T01:46:14.360Z,63093.13
2023-05-23T01:48:43.970Z,62762.19
2023-05-23T01:51:12.620Z,62756.22
2023-05-23T01:53:41.329Z,62907.72
2023-05-23T01:56:10.475Z,62473.16
2023-05-23T01:58:39.280Z,62517.00
2023-05-23T02:01:10.273Z,62704.38
2023-05-23T02:03:39.534Z,62704.38
2023-05-23T02:06:08.640Z,62961.53
2023-05-23T02:08:37.202Z,62911.69
2023-05-23T02:11:05.965Z,63617.50
2023-05-23T02:13:34.705Z,63916.63
2023-05-23T02:16:04.114Z,64231.72
2023-05-23T02:18:34.150Z,64939.78
2023-05-23T02:21:03.222Z,65616.06
2023-05-23T02:23:31.875Z,66693.63
2023-05-23T02:26:00.659Z,66815.38
2023-05-23T02:28:29.185Z,67324.34
2023-05-23T02:30:57.745Z,67815.44
2023-05-23T02:33:26.604Z,68648.06
2023-05-23T02:35:57.188Z,68793.84
2023-05-23T02:38:27.054Z,68402.44
2023-05-23T02:40:57.703Z,68692.00
2023-05-23T02:43:26.218Z,69155.31
2023-05-23T02:45:54.827Z,68805.81
2023-05-23T02:48:23.689Z,70583.66
2023-05-23T02:50:52.725Z,71187.13
2023-05-23T02:53:22.893Z,70985.28
2023-05-23T02:55:51.698Z,71646.78
2023-05-23T02:58:20.876Z,70581.66
2023-05-23T03:00:49.836Z,71954.59
2023-05-23T03:03:18.676Z,71187.13
2023-05-23T03:05:48.460Z,72210.47
2023-05-23T03:08:17.125Z,72466.34
2023-05-23T03:10:47.325Z,73490.06
2023-05-23T03:13:16.328Z,73234.09
2023-05-23T03:15:44.977Z,73234.09
2023-05-23T03:18:13.878Z,73490.06
2023-05-23T03:20:43.402Z,72978.16
2023-05-23T03:23:13.146Z,72466.34
2023-05-23T03:25:41.861Z,72466.34
2023-05-23T03:28:12.428Z,72978.16
2023-05-23T03:30:41.058Z,72978.16
2023-05-23T03:33:09.711Z,73234.09
2023-05-23T03:35:38.816Z,74002.03
2023-05-23T03:38:07.552Z,74002.03
2023-05-23T03:40:36.042Z,74770.16
2023-05-23T03:43:05.895Z,75282.31
2023-05-23T03:45:37.693Z,75538.44
2023-05-23T03:48:13.108Z,76306.91
2023-05-23T03:50:43.104Z,77075.53
2023-05-23T03:53:13.037Z,77331.78
2023-05-23T03:55:41.899Z,77844.31
2023-05-23T03:58:10.703Z,78356.94
2023-05-23T04:00:41.083Z,78869.66
2023-05-23T04:03:11.859Z,78869.66
2023-05-23T04:05:41.605Z,79382.44
2023-05-23T04:08:11.397Z,79638.84
2023-05-23T04:10:40.055Z,80408.22
2023-05-23T04:13:09.738Z,80921.25
2023-05-23T04:15:41.331Z,81434.31
2023-05-23T04:18:13.233Z,81434.31
2023-05-23T04:20:42.165Z,82204.09
2023-05-23T04:23:10.863Z,83230.72
2023-05-23T04:25:42.523Z,83230.72
2023-05-23T04:28:17.886Z,83487.44
2023-05-23T04:30:49.552Z,83487.44
2023-05-23T04:33:21.901Z,84000.91
2023-05-23T04:35:51.329Z,83744.16
2023-05-23T04:38:22.209Z,84000.91
2023-05-23T04:40:52.961Z,84000.91
2023-05-23T04:43:42.648Z,83744.16
2023-05-23T04:46:23.405Z,83744.16
2023-05-23T04:48:59.034Z,84000.91
2023-05-23T04:51:27.555Z,84000.91
2023-05-23T04:54:02.537Z,84000.91
2023-05-23T04:56:31.769Z,85028.06
2023-05-23T04:59:00.282Z,85541.78
2023-05-23T05:01:31.666Z,85028.06
2023-05-23T05:04:01.703Z,85541.78
2023-05-23T05:06:31.231Z,85284.91
2023-05-23T05:08:59.852Z,85541.78
2023-05-23T05:11:28.741Z,85284.91
2023-05-23T05:13:57.627Z,85798.66
2023-05-23T05:16:26.435Z,85284.91
2023-05-23T05:18:57.449Z,84771.25
2023-05-23T05:21:26.314Z,84771.25
2023-05-23T05:23:54.858Z,84000.91
2023-05-23T05:26:23.577Z,82974.03
2023-05-23T05:28:53.237Z,81947.50
2023-05-23T05:31:23.195Z,81434.31
2023-05-23T05:33:51.952Z,80921.25
2023-05-23T05:36:22.450Z,80664.72
2023-05-23T05:38:53.267Z,79126.03
2023-05-23T05:41:23.623Z,78869.66
2023-05-23T05:43:55.561Z,78613.28
2023-05-23T05:46:25.069Z,78356.94
2023-05-23T05:48:55.346Z,78356.94
2023-05-23T05:51:25.947Z,79126.03
2023-05-23T05:53:54.610Z,78869.66
2023-05-23T05:56:23.849Z,78356.94
2023-05-23T05:58:52.989Z,78869.66
2023-05-23T06:01:21.866Z,78869.66
2023-05-23T06:03:51.017Z,78869.66
2023-05-23T06:06:20.415Z,78613.28
2023-05-23T06:08:51.076Z,78356.94
2023-05-23T06:11:19.894Z,78869.66
2023-05-23T06:13:48.616Z,78613.28
2023-05-23T06:16:17.297Z,79638.84
2023-05-23T06:18:47.149Z,79382.44
2023-05-23T06:21:15.850Z,79895.28
2023-05-23T06:23:44.496Z,79638.84
2023-05-23T06:26:14.724Z,79638.84
2023-05-23T06:28:43.296Z,78356.94
2023-05-23T06:31:12.026Z,78100.63
2023-05-23T06:33:40.624Z,77331.78
2023-05-23T06:36:09.439Z,77588.03
2023-05-23T06:38:38.127Z,76306.91
2023-05-23T06:41:08.289Z,76050.72
2023-05-23T06:43:39.916Z,75794.56
2023-05-23T06:46:17.166Z,76563.09
2023-05-23T06:48:46.239Z,77844.31
2023-05-23T06:51:15.530Z,79126.03
2023-05-23T06:53:44.559Z,79895.28
2023-05-23T06:56:13.550Z,79382.44
2023-05-23T06:58:54.324Z,80664.72
2023-05-23T07:01:23.759Z,81177.78
2023-05-23T07:03:53.036Z,81690.91
2023-05-23T07:06:21.790Z,81947.50
2023-05-23T07:08:50.638Z,83230.72
2023-05-23T07:11:19.307Z,84257.66
2023-05-23T07:13:56.037Z,85284.91
2023-05-23T07:16:43.404Z,86055.56
2023-05-23T07:19:13.813Z,86055.56
2023-05-23T07:21:47.182Z,85798.66
2023-05-23T07:24:18.699Z,86569.41
2023-05-23T07:26:47.497Z,87597.34
2023-05-23T07:29:18.078Z,88368.50
2023-05-23T07:31:49.157Z,88625.56
2023-05-23T07:34:18.934Z,88882.69
2023-05-23T07:36:55.075Z,88882.69
2023-05-23T07:39:26.031Z,89139.81
2023-05-23T07:41:55.655Z,88882.69
2023-05-23T07:44:25.867Z,87597.34
2023-05-23T07:46:55.757Z,86826.34
2023-05-23T07:49:24.876Z,86312.47
2023-05-23T07:51:55.508Z,85798.66
2023-05-23T07:54:24.284Z,85284.91
2023-05-23T07:56:57.411Z,82717.38
2023-05-23T07:59:30.207Z,80408.22
2023-05-23T08:01:59.859Z,78613.28
2023-05-23T08:04:30.106Z,73746.06
2023-05-23T08:07:05.361Z,71442.94
2023-05-23T08:09:44.634Z,69371.03
2023-05-23T08:12:16.916Z,68937.63
2023-05-23T08:14:51.609Z,66186.72
2023-05-23T08:17:26.118Z,66154.81
2023-05-23T08:19:55.248Z,63019.34
2023-05-23T08:22:24.634Z,63067.19
2023-05-23T08:24:53.236Z,62915.69
2023-05-23T08:27:23.500Z,62648.56
2023-05-23T08:29:58.739Z,62377.47
2023-05-23T08:32:27.496Z,61996.78
2023-05-23T08:34:56.415Z,60942.63
2023-05-23T08:37:25.021Z,58998.56
2023-05-23T08:39:54.149Z,59438.66
2023-05-23T08:42:35.300Z,58415.16
2023-05-23T08:45:08.372Z,57744.28
2023-05-23T08:47:40.165Z,57734.34
2023-05-23T08:50:12.102Z,57646.75
2023-05-23T08:52:47.395Z,56605.88
2023-05-23T08:55:17.852Z,56890.44
2023-05-23T08:57:48.834Z,56369.09
2023-05-23T09:00:31.157Z,55698.63
2023-05-23T09:03:00.359Z,55698.63
2023-05-23T09:05:55.664Z,55400.22
2023-05-23T09:08:25.867Z,55173.47
2023-05-23T09:10:59.259Z,55070.03
2023-05-23T09:13:28.636Z,54936.78
2023-05-23T09:16:03.151Z,54849.25
2023-05-23T09:18:38.154Z,54662.31
2023-05-23T09:21:07.782Z,54523.09
2023-05-23T09:23:40.351Z,54461.47
2023-05-23T09:26:11.650Z,54304.38
2023-05-23T09:28:41.471Z,54135.34
2023-05-23T09:31:14.698Z,54031.94
2023-05-23T09:33:48.307Z,54010.06
2023-05-23T09:36:19.020Z,53968.31
2023-05-23T09:38:49.328Z,53932.53
2023-05-23T09:41:21.724Z,53906.69
2023-05-23T09:43:54.325Z,53801.31
2023-05-23T09:46:24.843Z,53769.50
2023-05-23T09:48:54.085Z,53753.59
2023-05-23T09:51:24.030Z,53731.72
2023-05-23T09:53:53.473Z,53689.97
2023-05-23T09:56:23.680Z,53670.09
2023-05-23T09:58:52.828Z,53634.28
2023-05-23T10:01:22.345Z,53666.09
2023-05-23T10:03:58.080Z,53660.13
2023-05-23T10:06:33.412Z,53684.00
2023-05-23T10:09:06.066Z,53662.13
2023-05-23T10:12:10.114Z,53662.13
2023-05-23T10:14:45.252Z,53646.22
2023-05-23T10:17:20.143Z,53658.16
2023-05-23T10:19:58.249Z,53636.28
2023-05-23T10:22:27.539Z,53618.38
2023-05-23T10:24:56.731Z,53568.69
2023-05-23T10:27:25.292Z,53592.53
2023-05-23T10:29:53.885Z,53574.66
2023-05-23T10:32:25.413Z,53560.72
2023-05-23T10:35:01.117Z,53556.75
2023-05-23T10:37:36.949Z,53574.66
2023-05-23T10:40:13.386Z,53598.50
2023-05-23T10:42:50.964Z,53570.69
2023-05-23T10:45:21.082Z,53578.63
2023-05-23T10:47:51.233Z,53570.69
2023-05-23T10:50:34.809Z,53538.88
2023-05-23T10:53:04.601Z,53558.75
2023-05-23T10:55:34.350Z,53544.81
2023-05-23T10:58:17.061Z,53582.59
2023-05-23T11:00:53.522Z,53546.81
2023-05-23T11:03:34.020Z,53542.84
2023-05-23T11:06:04.594Z,53584.59
2023-05-23T11:08:48.273Z,53572.66
2023-05-23T11:11:17.401Z,53544.81
2023-05-23T11:13:57.645Z,53530.91
2023-05-23T11:16:27.851Z,53560.72
2023-05-23T11:19:26.405Z,53526.94
2023-05-23T11:22:01.523Z,53534.88
2023-05-23T11:24:54.110Z,53511.03
2023-05-23T11:27:28.700Z,53517.00
2023-05-23T11:30:02.286Z,53550.78
2023-05-23T11:32:32.318Z,53540.84
2023-05-23T11:35:02.224Z,53534.88
2023-05-23T11:37:32.672Z,53513.03
2023-05-23T11:40:02.410Z,53491.16
2023-05-23T11:42:31.110Z,53485.19
2023-05-23T11:44:59.634Z,53431.50
2023-05-23T11:47:28.205Z,53489.16
2023-05-23T11:49:56.687Z,53467.28
2023-05-23T11:52:25.201Z,53399.69
2023-05-23T11:55:02.265Z,53373.84
2023-05-23T11:57:32.387Z,53373.84
2023-05-23T12:00:01.405Z,53353.97
2023-05-23T12:02:30.121Z,53359.94
2023-05-23T12:04:58.662Z,53361.94
2023-05-23T12:07:27.433Z,53399.69
2023-05-23T12:09:58.491Z,53377.84
2023-05-23T12:12:27.618Z,53377.84
2023-05-23T12:14:57.626Z,53399.69
2023-05-23T12:17:26.699Z,53401.69
2023-05-23T12:19:55.399Z,53359.94
2023-05-23T12:22:25.560Z,53391.75
2023-05-23T12:24:56.178Z,53312.22
2023-05-23T12:27:31.899Z,53294.34
2023-05-23T12:30:08.380Z,53278.44
2023-05-23T12:32:38.854Z,53276.44
2023-05-23T12:35:08.917Z,53258.56
2023-05-23T12:37:41.051Z,53258.56
2023-05-23T12:40:15.289Z,53236.69
2023-05-23T12:42:53.507Z,53244.63
2023-05-23T12:45:23.760Z,53328.13
2023-05-23T12:47:54.442Z,53310.25
2023-05-23T12:50:23.596Z,53324.16
2023-05-23T12:52:52.717Z,53268.50
2023-05-23T12:55:22.052Z,53324.16
2023-05-23T12:57:52.765Z,53342.06
2023-05-23T13:00:22.838Z,53346.03
2023-05-23T13:02:52.036Z,53334.09
2023-05-23T13:05:22.568Z,53316.22
2023-05-23T13:07:51.556Z,53312.22
2023-05-23T13:10:20.436Z,53292.34
2023-05-23T13:12:49.120Z,53326.16
2023-05-23T13:15:19.609Z,53314.22
2023-05-23T13:17:50.326Z,53312.22
2023-05-23T13:20:19.604Z,53316.22
2023-05-23T13:22:48.294Z,53280.41
2023-05-23T13:25:17.474Z,53300.31
2023-05-23T13:27:48.194Z,53314.22
2023-05-23T13:30:19.589Z,53336.09
2023-05-23T13:32:51.547Z,53296.31
2023-05-23T13:35:20.947Z,53310.25
2023-05-23T13:37:49.781Z,53324.16
2023-05-23T13:40:20.786Z,53344.03
2023-05-23T13:42:52.010Z,53346.03
2023-05-23T13:45:23.570Z,53363.91
2023-05-23T13:47:52.632Z,53312.22
2023-05-23T13:50:22.113Z,53276.44
2023-05-23T13:52:51.139Z,53324.16
2023-05-23T13:55:20.129Z,53348.00
2023-05-23T13:57:49.275Z,53348.00
2023-05-23T14:00:19.064Z,53365.91
2023-05-23T14:02:52.463Z,53359.94
2023-05-23T14:05:22.856Z,53350.00
2023-05-23T14:07:51.898Z,53296.31
2023-05-23T14:10:21.459Z,53336.09
2023-05-23T14:12:51.039Z,53340.06
2023-05-23T14:15:20.225Z,53272.47
2023-05-23T14:17:55.521Z,53304.28
2023-05-23T14:20:24.958Z,53292.34
2023-05-23T14:22:53.988Z,53280.41
2023-05-23T14:25:23.143Z,53268.50
2023-05-23T14:27:51.802Z,53246.63
2023-05-23T14:30:21.070Z,53300.31
2023-05-23T14:32:51.998Z,53284.41
2023-05-23T14:35:22.742Z,53302.28
2023-05-23T14:37:54.422Z,53274.47
2023-05-23T14:40:23.252Z,53324.16
2023-05-23T14:42:52.667Z,53359.94
2023-05-23T14:45:22.146Z,53338.06
2023-05-23T14:47:52.837Z,53340.06
2023-05-23T14:50:21.821Z,53383.78
2023-05-23T14:52:50.740Z,53336.09
2023-05-23T14:55:20.889Z,53336.09
2023-05-23T14:57:49.648Z,53320.19
2023-05-23T15:00:19.849Z,53316.22
2023-05-23T15:02:49.028Z,53342.06
2023-05-23T15:05:19.280Z,53328.13
2023-05-23T15:07:48.121Z,53334.09
2023-05-23T15:10:17.952Z,53371.88
2023-05-23T15:12:46.853Z,53387.78
2023-05-23T15:15:17.083Z,53381.81
2023-05-23T15:17:47.482Z,53369.88
2023-05-23T15:20:16.666Z,53401.69
2023-05-23T15:22:47.888Z,53405.66
2023-05-23T15:25:19.036Z,53363.91
2023-05-23T15:27:51.349Z,53359.94
2023-05-23T15:30:20.174Z,53379.81
2023-05-23T15:32:50.369Z,53350.00
2023-05-23T15:35:19.931Z,53355.97
2023-05-23T15:37:50.670Z,53348.00
2023-05-23T15:40:21.947Z,53344.03
2023-05-23T15:42:52.633Z,53359.94
2023-05-23T15:45:22.600Z,53391.75
2023-05-23T15:47:51.821Z,53391.75
2023-05-23T15:50:21.814Z,53361.94
2023-05-23T15:52:55.490Z,53379.81
2023-05-23T15:55:24.892Z,53361.94
2023-05-23T15:57:54.734Z,53371.88
2023-05-23T16:00:24.750Z,53355.97
2023-05-23T16:02:54.329Z,53369.88
2023-05-23T16:05:23.701Z,53369.88
2023-05-23T16:07:52.877Z,53355.97
2023-05-23T16:10:24.929Z,53336.09
2023-05-23T16:12:54.473Z,53348.00
2023-05-23T16:15:24.084Z,53348.00
2023-05-23T16:17:53.528Z,53391.75
2023-05-23T16:20:22.840Z,53399.69
2023-05-23T16:22:51.954Z,53395.72
2023-05-23T16:25:21.222Z,53403.69
2023-05-23T16:27:52.815Z,53393.75
2023-05-23T16:30:21.678Z,53403.69
2023-05-23T16:32:50.602Z,53407.66
2023-05-23T16:35:20.006Z,53403.69
2023-05-23T16:37:49.663Z,53409.63
2023-05-23T16:40:19.915Z,53403.69
2023-05-23T16:42:49.520Z,53423.56
2023-05-23T16:45:20.185Z,53459.34
2023-05-23T16:47:49.129Z,53443.44
2023-05-23T16:50:18.192Z,53427.53
2023-05-23T16:52:47.481Z,53427.53
2023-05-23T16:55:16.748Z,53443.44
2023-05-23T16:57:45.657Z,53447.41
2023-05-23T17:00:15.895Z,53461.31
2023-05-23T17:02:47.672Z,53461.31
2023-05-23T17:05:17.208Z,53425.53
2023-05-23T17:07:45.991Z,53435.47
2023-05-23T17:10:15.141Z,53403.69
2023-05-23T17:12:47.133Z,53395.72
2023-05-23T17:15:17.507Z,53411.63
2023-05-23T17:17:48.270Z,53409.63
2023-05-23T17:20:20.515Z,53393.75
2023-05-23T17:22:50.479Z,53403.69
2023-05-23T17:25:21.017Z,53385.78
2023-05-23T17:27:50.194Z,53453.38
2023-05-23T17:30:19.624Z,53435.47
2023-05-23T17:32:50.049Z,53475.25
2023-05-23T17:35:21.258Z,53443.44
2023-05-23T17:37:57.483Z,53479.22
2023-05-23T17:40:26.725Z,53441.44
2023-05-23T17:42:57.111Z,53491.16
2023-05-23T17:45:26.281Z,53439.47
2023-05-23T17:47:59.149Z,53501.09
2023-05-23T17:50:27.814Z,53485.19
2023-05-23T17:52:57.104Z,53461.31
2023-05-23T17:55:27.458Z,53467.28
2023-05-23T17:57:57.144Z,53465.31
2023-05-23T18:00:29.929Z,53503.06
2023-05-23T18:03:06.489Z,53499.09
2023-05-23T18:05:41.509Z,53471.28
2023-05-23T18:08:10.652Z,53471.28
2023-05-23T18:10:40.512Z,53491.16
2023-05-23T18:13:09.762Z,53463.31
2023-05-23T18:15:40.271Z,53485.19
2023-05-23T18:18:10.496Z,53485.19
2023-05-23T18:20:40.154Z,53471.28
2023-05-23T18:23:09.409Z,53511.03
2023-05-23T18:25:40.413Z,53479.22
2023-05-23T18:28:12.402Z,53483.19
2023-05-23T18:30:42.232Z,53449.41
2023-05-23T18:33:29.472Z,53503.06
2023-05-23T18:35:59.092Z,53475.25
2023-05-23T18:38:29.399Z,53497.13
2023-05-23T18:40:58.944Z,53477.22
2023-05-23T18:43:28.188Z,53515.00
2023-05-23T18:45:57.559Z,53515.00
2023-05-23T18:48:28.490Z,53524.94
2023-05-23T18:50:58.161Z,53513.03
2023-05-23T18:53:27.792Z,53507.06
2023-05-23T18:55:57.116Z,53475.25
2023-05-23T18:58:27.136Z,53485.19
2023-05-23T19:00:57.093Z,53511.03
2023-05-23T19:03:35.054Z,53546.81
2023-05-23T19:06:04.275Z,53507.06
2023-05-23T19:08:37.632Z,53540.84
2023-05-23T19:11:08.119Z,53546.81
2023-05-23T19:13:46.276Z,53534.88
2023-05-23T19:16:17.868Z,53497.13
2023-05-23T19:18:51.688Z,53560.72
2023-05-23T19:21:22.301Z,53546.81
2023-05-23T19:23:53.042Z,53497.13
2023-05-23T19:26:24.919Z,53530.91
2023-05-23T19:28:55.673Z,53548.81
2023-05-23T19:31:27.364Z,53542.84
2023-05-23T19:33:58.003Z,53556.75
2023-05-23T19:36:27.652Z,53554.78
2023-05-23T19:38:56.471Z,53560.72
2023-05-23T19:41:25.387Z,53590.56
2023-05-23T19:43:54.191Z,53544.81
2023-05-23T19:46:23.229Z,53572.66
2023-05-23T19:48:52.019Z,53550.78
2023-05-23T19:51:22.556Z,53560.72
2023-05-23T19:53:54.648Z,53542.84
2023-05-23T19:56:30.535Z,53578.63
2023-05-23T19:58:59.757Z,53614.41
2023-05-23T20:01:31.701Z,53570.69
2023-05-23T20:04:02.469Z,53598.50
2023-05-23T20:06:33.621Z,53590.56
2023-05-23T20:09:04.759Z,53604.47
2023-05-23T20:11:33.726Z,53572.66
2023-05-23T20:14:03.013Z,53602.47
2023-05-23T20:16:31.912Z,53594.53
2023-05-23T20:19:03.738Z,53656.16
2023-05-23T20:21:35.200Z,53598.50
2023-05-23T20:24:06.943Z,53582.59
2023-05-23T20:26:37.249Z,53652.19
2023-05-23T20:29:07.040Z,53590.56
2023-05-23T20:31:38.167Z,53624.34
2023-05-23T20:34:07.788Z,53630.31
2023-05-23T20:36:46.360Z,53646.22
2023-05-23T20:39:17.009Z,53646.22
2023-05-23T20:41:46.371Z,53654.19
2023-05-23T20:44:18.585Z,53624.34
2023-05-23T20:46:50.038Z,53624.34
2023-05-23T20:49:21.169Z,53616.41
2023-05-23T20:51:51.627Z,53622.38
2023-05-23T20:54:22.451Z,53632.31
2023-05-23T20:56:53.230Z,53654.19
2023-05-23T20:59:26.656Z,53652.19
2023-05-23T21:01:57.660Z,53650.19
2023-05-23T21:04:28.423Z,53626.34
2023-05-23T21:07:00.013Z,53695.94
2023-05-23T21:09:29.784Z,53630.31
2023-05-23T21:12:10.718Z,53646.22
2023-05-23T21:14:39.345Z,53682.00
2023-05-23T21:17:09.349Z,53662.13
2023-05-23T21:19:38.619Z,53686.00
2023-05-23T21:22:09.295Z,53666.09
2023-05-23T21:24:38.428Z,53684.00
2023-05-23T21:27:07.940Z,53662.13
2023-05-23T21:29:37.113Z,53672.06
2023-05-23T21:32:07.004Z,53654.19
2023-05-23T21:34:36.094Z,53638.28
2023-05-23T21:37:05.249Z,53693.94
2023-05-23T21:39:49.933Z,53693.94
2023-05-23T21:42:20.542Z,53691.94
2023-05-23T21:44:49.831Z,53658.16
2023-05-23T21:47:19.788Z,53650.19
2023-05-23T21:49:50.139Z,53670.09
2023-05-23T21:52:19.652Z,53735.69
2023-05-23T21:54:50.159Z,53725.75
2023-05-23T21:57:20.115Z,53693.94
2023-05-23T21:59:49.023Z,53697.91
2023-05-23T22:02:18.539Z,53715.81
2023-05-23T22:04:47.479Z,53695.94
2023-05-23T22:07:16.609Z,53693.94
2023-05-23T22:09:45.579Z,53717.78
2023-05-23T22:12:15.897Z,53717.78
2023-05-23T22:14:44.766Z,53747.63
2023-05-23T22:17:14.360Z,53713.81
2023-05-23T22:19:43.303Z,53761.53
2023-05-23T22:22:12.533Z,53717.78
2023-05-23T22:24:41.704Z,53745.63
2023-05-23T22:27:10.630Z,53797.31
2023-05-23T22:29:40.903Z,53797.31
2023-05-23T22:32:09.666Z,53821.19
2023-05-23T22:34:38.626Z,53805.28
2023-05-23T22:37:07.464Z,53827.16
2023-05-23T22:39:35.963Z,53860.94
2023-05-23T22:42:04.882Z,53825.16
2023-05-23T22:44:33.541Z,53892.75
2023-05-23T22:47:04.031Z,53920.59
2023-05-23T22:49:32.534Z,53934.50
2023-05-23T22:52:01.328Z,53974.28
2023-05-23T22:54:29.828Z,53974.28
2023-05-23T22:56:58.342Z,53952.41
2023-05-23T22:59:26.809Z,54014.06
2023-05-23T23:01:55.303Z,54083.66
2023-05-23T23:04:25.623Z,54071.72
2023-05-23T23:06:54.889Z,54153.25
2023-05-23T23:09:23.299Z,54147.28
2023-05-23T23:11:51.944Z,54159.19
2023-05-23T23:14:22.428Z,54210.91
2023-05-23T23:16:51.082Z,54212.88
2023-05-23T23:19:19.696Z,54266.59
2023-05-23T23:21:49.540Z,54272.53
2023-05-23T23:24:17.983Z,54298.41
2023-05-23T23:26:46.516Z,54342.16
2023-05-23T23:29:15.092Z,54381.91
2023-05-23T23:31:43.667Z,54358.06
2023-05-23T23:34:12.149Z,54433.63
2023-05-23T23:36:40.716Z,54417.72
2023-05-23T23:39:11.065Z,54507.19
2023-05-23T23:41:39.779Z,54471.41
2023-05-23T23:44:08.340Z,54515.16
2023-05-23T23:46:36.914Z,54612.59
2023-05-23T23:49:05.753Z,54614.59
2023-05-23T23:51:34.438Z,54574.81
2023-05-23T23:54:02.861Z,54602.66
2023-05-23T23:56:32.787Z,54698.13
2023-05-23T23:59:01.285Z,54739.88
